createdAt,value
2022-11-02T00:01:42.532Z,100938.31
2022-11-02T00:04:44.803Z,100935.94
2022-11-02T00:07:47.088Z,100941.63
2022-11-02T00:10:49.238Z,100945.09
2022-11-02T00:13:55.115Z,100948.09
2022-11-02T00:16:57.311Z,100948.88
2022-11-02T00:19:59.764Z,100945.75
2022-11-02T00:23:02.935Z,100941.97
2022-11-02T00:26:05.561Z,100946.53
2022-11-02T00:29:08.465Z,100952.97
2022-11-02T00:32:10.847Z,100955.34
2022-11-02T00:35:13.353Z,100947.31
2022-11-02T00:38:15.613Z,100945.09
2022-11-02T00:41:19.134Z,100945.88
2022-11-02T00:44:21.423Z,100934.41
2022-11-02T00:47:23.591Z,100940.66
2022-11-02T00:50:25.988Z,100945.72
2022-11-02T00:53:28.320Z,100941.44
2022-11-02T00:56:30.518Z,100938.91
2022-11-02T00:59:32.710Z,100943.59
2022-11-02T01:02:35.011Z,100946.75
2022-11-02T01:05:38.171Z,100942.97
2022-11-02T01:08:40.784Z,100956.00
2022-11-02T01:11:43.339Z,100943.56
2022-11-02T01:14:49.947Z,100944.03
2022-11-02T01:17:52.154Z,100936.47
2022-11-02T01:20:58.352Z,100941.16
2022-11-02T01:24:00.579Z,100943.50
2022-11-02T01:27:02.876Z,100951.97
2022-11-02T01:30:05.942Z,100942.84
2022-11-02T01:33:08.159Z,100942.53
2022-11-02T01:36:14.379Z,100943.75
2022-11-02T01:39:16.671Z,100939.22
2022-11-02T01:42:21.686Z,100921.25
2022-11-02T01:45:23.911Z,100920.47
2022-11-02T01:48:34.847Z,100917.47
2022-11-02T01:51:42.914Z,100927.06
2022-11-02T01:54:55.137Z,100930.84
2022-11-02T01:58:10.015Z,100939.66
2022-11-02T02:01:12.402Z,100942.34
2022-11-02T02:04:15.148Z,100924.41
2022-11-02T02:07:17.974Z,100940.00
2022-11-02T02:10:20.464Z,100935.09
2022-11-02T02:13:24.044Z,100934.31
2022-11-02T02:17:00.269Z,100937.78
2022-11-02T02:20:11.150Z,100932.41
2022-11-02T02:23:41.258Z,100929.75
2022-11-02T02:27:14.030Z,100944.22
2022-11-02T02:30:17.135Z,100938.09
2022-11-02T02:33:51.469Z,100948.03
2022-11-02T02:36:59.333Z,100934.19
2022-11-02T02:40:09.788Z,100942.22
2022-11-02T02:43:44.110Z,100937.16
2022-11-02T02:46:56.064Z,100943.66
2022-11-02T02:50:05.717Z,100953.56
2022-11-02T02:53:08.451Z,100951.22
2022-11-02T02:56:15.064Z,100955.31
2022-11-02T02:59:28.275Z,100948.84
2022-11-02T03:02:36.332Z,100955.63
2022-11-02T03:05:38.802Z,100952.97
2022-11-02T03:08:51.888Z,100962.09
2022-11-02T03:12:15.831Z,100963.22
2022-11-02T03:15:24.128Z,100971.22
2022-11-02T03:18:55.958Z,100973.13
2022-11-02T03:22:28.507Z,100979.91
2022-11-02T03:25:41.762Z,100978.66
2022-11-02T03:29:01.838Z,100992.03
2022-11-02T03:32:10.678Z,100996.91
2022-11-02T03:35:32.023Z,101001.47
2022-11-02T03:38:52.995Z,101009.84
2022-11-02T03:42:00.977Z,101001.03
2022-11-02T03:45:15.747Z,101006.38
2022-11-02T03:48:21.716Z,101005.13
2022-11-02T03:51:25.787Z,101008.94
2022-11-02T03:54:48.628Z,101011.91
2022-11-02T03:57:52.216Z,101003.09
2022-11-02T04:01:04.089Z,100996.53
2022-11-02T04:04:07.007Z,100995.72
2022-11-02T04:07:09.397Z,100985.81
2022-11-02T04:10:11.686Z,100971.19
2022-11-02T04:13:40.214Z,100967.75
2022-11-02T04:16:43.217Z,100968.84
2022-11-02T04:19:51.455Z,100981.41
2022-11-02T04:23:13.883Z,100997.78
2022-11-02T04:26:16.962Z,101001.56
2022-11-02T04:29:20.611Z,100993.88
2022-11-02T04:32:42.187Z,101011.78
2022-11-02T04:35:48.674Z,101012.59
2022-11-02T04:38:52.101Z,101022.50
2022-11-02T04:41:58.565Z,101028.19
2022-11-02T04:45:06.176Z,101025.16
2022-11-02T04:48:09.927Z,101043.59
2022-11-02T04:51:13.527Z,101029.09
2022-11-02T04:54:15.764Z,101041.38
2022-11-02T04:57:19.063Z,101040.25
2022-11-02T05:00:21.900Z,101033.00
2022-11-02T05:03:24.871Z,101036.16
2022-11-02T05:06:27.851Z,101039.31
2022-11-02T05:09:31.070Z,101038.19
2022-11-02T05:12:33.355Z,101042.91
2022-11-02T05:15:39.336Z,101044.94
2022-11-02T05:18:43.676Z,101053.41
2022-11-02T05:21:46.295Z,101048.53
2022-11-02T05:24:49.150Z,101038.28
2022-11-02T05:27:51.417Z,101048.34
2022-11-02T05:30:54.479Z,101048.03
2022-11-02T05:33:57.092Z,101055.75
2022-11-02T05:36:59.298Z,101044.38
2022-11-02T05:40:01.575Z,101055.88
2022-11-02T05:43:04.817Z,101057.91
2022-11-02T05:46:09.936Z,101057.13
2022-11-02T05:49:12.317Z,101056.78
2022-11-02T05:52:14.616Z,101055.69
2022-11-02T05:55:16.879Z,101059.94
2022-11-02T05:58:19.053Z,101061.19
2022-11-02T06:01:23.968Z,101048.56
2022-11-02T06:04:26.292Z,101044.00
2022-11-02T06:07:28.440Z,101047.47
2022-11-02T06:10:31.234Z,101044.00
2022-11-02T06:13:33.489Z,101045.59
2022-11-02T06:16:35.672Z,101037.56
2022-11-02T06:19:37.853Z,101041.03
2022-11-02T06:22:43.500Z,101041.34
2022-11-02T06:25:56.559Z,101047.47
2022-11-02T06:28:59.588Z,101051.25
2022-11-02T06:32:01.939Z,101049.06
2022-11-02T06:35:04.332Z,101044.00
2022-11-02T06:38:06.526Z,101044.00
2022-11-02T06:41:08.884Z,101044.81
2022-11-02T06:44:13.180Z,101045.59
2022-11-02T06:47:15.388Z,101044.81
2022-11-02T06:50:25.005Z,101055.50
2022-11-02T06:53:27.409Z,101068.09
2022-11-02T06:56:29.566Z,101071.56
2022-11-02T06:59:31.723Z,101071.56
2022-11-02T07:02:34.315Z,101076.28
2022-11-02T07:05:37.362Z,101069.16
2022-11-02T07:08:44.079Z,101070.84
2022-11-02T07:11:46.246Z,101067.53
2022-11-02T07:14:48.514Z,101072.72
2022-11-02T07:17:57.876Z,101067.63
2022-11-02T07:21:00.111Z,101069.00
2022-11-02T07:24:02.575Z,101074.78
2022-11-02T07:27:04.780Z,101084.34
2022-11-02T07:30:08.616Z,101072.78
2022-11-02T07:33:12.637Z,101065.34
2022-11-02T07:36:14.849Z,101078.50
2022-11-02T07:39:18.893Z,101082.13
2022-11-02T07:42:23.649Z,101086.16
2022-11-02T07:45:28.329Z,101079.34
2022-11-02T07:48:30.864Z,101092.25
2022-11-02T07:51:33.635Z,101090.03
2022-11-02T07:54:38.559Z,101084.47
2022-11-02T07:57:57.090Z,101077.31
2022-11-02T08:01:02.548Z,101071.16
2022-11-02T08:04:05.020Z,101074.09
2022-11-02T08:07:07.258Z,101084.31
2022-11-02T08:10:09.759Z,101087.88
2022-11-02T08:13:17.190Z,101082.97
2022-11-02T08:16:19.482Z,101091.63
2022-11-02T08:19:21.769Z,101085.59
2022-11-02T08:22:24.124Z,101090.72
2022-11-02T08:25:26.461Z,101085.50
2022-11-02T08:28:32.066Z,101084.16
2022-11-02T08:31:34.280Z,101076.16
2022-11-02T08:34:52.241Z,101072.25
2022-11-02T08:38:05.644Z,101081.66
2022-11-02T08:41:08.588Z,101074.16
2022-11-02T08:44:10.845Z,101081.66
2022-11-02T08:47:13.470Z,101073.38
2022-11-02T08:50:15.700Z,101074.97
2022-11-02T08:53:18.316Z,101084.00
2022-11-02T08:56:20.614Z,101086.25
2022-11-02T08:59:22.976Z,101080.34
2022-11-02T09:02:25.356Z,101061.78
2022-11-02T09:05:29.325Z,101069.25
2022-11-02T09:08:31.773Z,101055.59
2022-11-02T09:11:33.944Z,101049.88
2022-11-02T09:14:36.428Z,101054.91
2022-11-02T09:17:38.690Z,101056.91
2022-11-02T09:20:40.943Z,101048.09
2022-11-02T09:23:46.328Z,101058.03
2022-11-02T09:26:49.699Z,101055.25
2022-11-02T09:29:52.034Z,101055.25
2022-11-02T09:33:02.425Z,101049.78
2022-11-02T09:36:05.962Z,101050.09
2022-11-02T09:39:08.432Z,101048.88
2022-11-02T09:42:29.776Z,101050.81
2022-11-02T09:45:36.670Z,101056.16
2022-11-02T09:49:16.099Z,101061.19
2022-11-02T09:52:30.200Z,101049.66
2022-11-02T09:55:37.173Z,101054.38
2022-11-02T09:58:41.146Z,101049.00
2022-11-02T10:02:39.317Z,101045.97
2022-11-02T10:05:56.051Z,101043.28
2022-11-02T10:09:04.226Z,101039.91
2022-11-02T10:12:16.951Z,101042.00
2022-11-02T10:15:25.038Z,101041.34
2022-11-02T10:18:30.074Z,101043.78
2022-11-02T10:21:34.113Z,101042.69
2022-11-02T10:24:42.721Z,101041.91
2022-11-02T10:27:50.071Z,101036.97
2022-11-02T10:30:54.691Z,101037.75
2022-11-02T10:33:59.681Z,101040.09
2022-11-02T10:37:23.784Z,101036.59
2022-11-02T10:40:44.768Z,101036.59
2022-11-02T10:44:17.728Z,101031.22
2022-11-02T10:47:27.698Z,101035.84
2022-11-02T10:51:00.626Z,101037.41
2022-11-02T10:54:02.906Z,101032.81
2022-11-02T10:57:18.785Z,101035.94
2022-11-02T11:00:33.520Z,101035.50
2022-11-02T11:03:56.136Z,101030.91
2022-11-02T11:07:19.645Z,101039.75
2022-11-02T11:10:24.856Z,101029.34
2022-11-02T11:16:55.336Z,101033.47
2022-11-02T11:20:02.722Z,101034.63
2022-11-02T11:23:15.750Z,101036.97
2022-11-02T11:26:31.830Z,101039.22
2022-11-02T11:29:37.793Z,101041.09
2022-11-02T11:32:47.427Z,101040.66
2022-11-02T11:35:51.153Z,101034.50
2022-11-02T11:38:56.053Z,101039.09
2022-11-02T11:41:59.654Z,101033.28
2022-11-02T11:45:06.496Z,101036.31
2022-11-02T11:48:47.369Z,101035.53
2022-11-02T11:51:52.805Z,101035.09
2022-11-02T11:55:02.530Z,101036.56
2022-11-02T11:58:15.963Z,101033.53
2022-11-02T12:01:20.002Z,101018.53
2022-11-02T12:04:33.336Z,101002.06
2022-11-02T12:08:09.584Z,101006.78
2022-11-02T12:11:29.675Z,100996.81
2022-11-02T12:14:34.709Z,101001.47
2022-11-02T12:17:49.068Z,100996.47
2022-11-02T12:21:33.496Z,100995.69
2022-11-02T12:25:04.219Z,100988.41
2022-11-02T12:28:31.951Z,100983.38
2022-11-02T12:31:40.308Z,100976.44
2022-11-02T12:35:27.861Z,100978.69
2022-11-02T12:38:36.858Z,100975.09
2022-11-02T12:41:48.771Z,100975.09
2022-11-02T12:45:12.383Z,100972.34
2022-11-02T12:48:25.265Z,100970.31
2022-11-02T12:51:39.113Z,100974.22
2022-11-02T12:54:47.835Z,100965.06
2022-11-02T12:57:54.655Z,100968.88
2022-11-02T13:01:13.456Z,100969.22
2022-11-02T13:04:29.302Z,100969.09
2022-11-02T13:07:48.917Z,100967.09
2022-11-02T13:11:11.571Z,100968.53
2022-11-02T13:14:21.386Z,100966.56
2022-11-02T13:17:36.111Z,100972.25
2022-11-02T13:20:43.444Z,100961.88
2022-11-02T13:23:52.437Z,100954.16
2022-11-02T13:27:39.056Z,100958.75
2022-11-02T13:30:44.752Z,100955.63
2022-11-02T13:33:50.597Z,100964.78
2022-11-02T13:36:53.008Z,100971.25
2022-11-02T13:40:03.458Z,100968.50
2022-11-02T13:44:03.312Z,100965.81
2022-11-02T13:47:49.531Z,100970.38
2022-11-02T13:50:57.041Z,100968.38
2022-11-02T13:54:14.972Z,100971.06
2022-11-02T13:57:38.718Z,100966.34
2022-11-02T14:00:45.248Z,100971.25
2022-11-02T14:04:07.177Z,100965.44
2022-11-02T14:07:34.644Z,100975.09
2022-11-02T14:10:39.506Z,100978.09
2022-11-02T14:13:53.633Z,100980.00
2022-11-02T14:16:59.774Z,100985.69
2022-11-02T14:20:04.915Z,100978.00
2022-11-02T14:23:14.269Z,100981.03
2022-11-02T14:26:33.367Z,100983.72
2022-11-02T14:29:55.964Z,100977.13
2022-11-02T14:33:08.331Z,100977.44
2022-11-02T14:36:20.976Z,100978.88
2022-11-02T14:39:44.266Z,100988.84
2022-11-02T14:43:16.902Z,100982.72
2022-11-02T14:46:34.389Z,100989.53
2022-11-02T14:50:08.405Z,100990.63
2022-11-02T14:53:26.305Z,100989.84
2022-11-02T14:56:49.035Z,100987.16
2022-11-02T14:59:54.845Z,100987.88
2022-11-02T15:02:58.460Z,100990.88
2022-11-02T15:06:32.128Z,101000.06
2022-11-02T15:10:00.989Z,100998.81
2022-11-02T15:13:24.232Z,101000.72
2022-11-02T15:16:39.086Z,100994.13
2022-11-02T15:19:52.024Z,100995.91
2022-11-02T15:23:01.088Z,100996.22
2022-11-02T15:26:06.104Z,101005.41
2022-11-02T15:29:19.943Z,101008.53
2022-11-02T15:32:25.991Z,101001.28
2022-11-02T15:35:34.782Z,101015.13
2022-11-02T15:38:40.267Z,101010.56
2022-11-02T15:42:13.724Z,101014.78
2022-11-02T15:45:46.768Z,101012.91
2022-11-02T15:49:26.902Z,101014.78
2022-11-02T15:53:21.077Z,101013.25
2022-11-02T15:56:23.343Z,101013.25
2022-11-02T15:59:53.016Z,101014.34
2022-11-02T16:03:03.113Z,101021.59
2022-11-02T16:06:06.229Z,101012.78
2022-11-02T16:09:34.242Z,101016.59
2022-11-02T16:12:36.429Z,101015.34
2022-11-02T16:15:42.381Z,101017.25
2022-11-02T16:18:51.080Z,101018.03
2022-11-02T16:21:56.041Z,101007.75
2022-11-02T16:25:10.585Z,101018.13
2022-11-02T16:28:12.762Z,101016.25
2022-11-02T16:31:30.736Z,101020.16
2022-11-02T16:34:33.663Z,101021.38
2022-11-02T16:37:36.135Z,101029.88
2022-11-02T16:40:38.594Z,101038.38
2022-11-02T16:43:45.738Z,101038.84
2022-11-02T16:46:58.891Z,101036.91
2022-11-02T16:50:01.287Z,101040.06
2022-11-02T16:53:03.491Z,101047.78
2022-11-02T16:56:28.531Z,101052.03
2022-11-02T16:59:36.179Z,101051.69
2022-11-02T17:02:45.874Z,101045.19
2022-11-02T17:05:49.654Z,101064.09
2022-11-02T17:08:54.884Z,101058.38
2022-11-02T17:12:12.231Z,101045.44
2022-11-02T17:15:20.646Z,101060.09
2022-11-02T17:18:22.777Z,101068.59
2022-11-02T17:21:27.824Z,101061.75
2022-11-02T17:24:32.368Z,101069.47
2022-11-02T17:27:39.247Z,101068.00
2022-11-02T17:30:46.718Z,101069.63
2022-11-02T17:33:49.569Z,101066.94
2022-11-02T17:36:52.186Z,101071.16
2022-11-02T17:39:55.918Z,101068.47
2022-11-02T17:43:01.002Z,101081.91
2022-11-02T17:46:03.225Z,101072.75
2022-11-02T17:49:05.441Z,101074.28
2022-11-02T17:52:10.283Z,101075.44
2022-11-02T17:55:18.018Z,101073.06
2022-11-02T17:58:20.156Z,101067.69
2022-11-02T18:01:22.475Z,101066.94
2022-11-02T18:04:24.790Z,101068.81
2022-11-02T18:07:27.030Z,101068.00
2022-11-02T18:10:32.743Z,101077.16
2022-11-02T18:13:34.894Z,101074.84
2022-11-02T18:16:37.066Z,101082.09
2022-11-02T18:19:39.253Z,101077.88
2022-11-02T18:22:41.708Z,101076.28
2022-11-02T18:25:43.958Z,101078.53
2022-11-02T18:28:46.150Z,101079.63
2022-11-02T18:31:48.334Z,101074.63
2022-11-02T18:34:50.541Z,101073.81
2022-11-02T18:37:52.789Z,101082.22
2022-11-02T18:40:54.962Z,101072.16
2022-11-02T18:44:08.915Z,101078.31
2022-11-02T18:47:12.751Z,101071.72
2022-11-02T18:50:14.986Z,101070.47
2022-11-02T18:53:17.180Z,101075.06
2022-11-02T18:56:21.105Z,101076.94
2022-11-02T18:59:23.291Z,101071.94
2022-11-02T19:02:26.109Z,101076.84
2022-11-02T19:05:46.913Z,101079.09
2022-11-02T19:09:08.329Z,101073.72
2022-11-02T19:12:16.341Z,101085.91
2022-11-02T19:15:18.507Z,101093.16
2022-11-02T19:18:20.674Z,101088.13
2022-11-02T19:21:22.845Z,101091.16
2022-11-02T19:24:25.041Z,101097.66
2022-11-02T19:27:27.277Z,101096.84
2022-11-02T19:30:29.468Z,101097.97
2022-11-02T19:33:34.611Z,101098.75
2022-11-02T19:36:37.229Z,101106.81
2022-11-02T19:39:39.828Z,101106.44
2022-11-02T19:42:41.993Z,101098.41
2022-11-02T19:45:44.168Z,101099.63
2022-11-02T19:48:46.588Z,101101.22
2022-11-02T19:51:48.824Z,101102.78
2022-11-02T19:54:51.172Z,101098.19
2022-11-02T19:57:53.490Z,101100.22
2022-11-02T20:00:55.704Z,101104.91
2022-11-02T20:03:58.447Z,101106.16
2022-11-02T20:07:00.641Z,101108.50
2022-11-02T20:10:02.819Z,101111.63
2022-11-02T20:13:04.990Z,101104.00
2022-11-02T20:16:08.286Z,101108.28
2022-11-02T20:19:10.914Z,101102.25
2022-11-02T20:22:13.114Z,101105.38
2022-11-02T20:25:15.335Z,101101.25
2022-11-02T20:28:17.486Z,101093.63
2022-11-02T20:31:25.890Z,101102.91
2022-11-02T20:34:28.136Z,101099.91
2022-11-02T20:37:34.908Z,101102.28
2022-11-02T20:40:41.110Z,101103.81
2022-11-02T20:43:45.714Z,101103.50
2022-11-02T20:46:52.793Z,101105.06
2022-11-02T20:49:55.589Z,101103.16
2022-11-02T20:52:58.907Z,101113.91
2022-11-02T20:56:01.996Z,101112.00
2022-11-02T20:59:04.268Z,101105.84
2022-11-02T21:02:06.659Z,101100.03
2022-11-02T21:05:09.268Z,101099.69
2022-11-02T21:08:12.428Z,101091.19
2022-11-02T21:11:32.871Z,101091.19
2022-11-02T21:14:35.047Z,101081.91
2022-11-02T21:17:37.215Z,101089.97
2022-11-02T21:20:39.534Z,101088.41
2022-11-02T21:23:42.495Z,101086.81
2022-11-02T21:26:44.657Z,101099.44
2022-11-02T21:29:46.839Z,101093.63
2022-11-02T21:32:53.350Z,101103.56
2022-11-02T21:35:55.609Z,101108.50
2022-11-02T21:38:58.874Z,101118.44
2022-11-02T21:42:04.736Z,101118.78
2022-11-02T21:45:07.910Z,101119.13
2022-11-02T21:48:10.204Z,101122.94
2022-11-02T21:51:15.060Z,101120.59
2022-11-02T21:54:17.236Z,101120.91
2022-11-02T21:57:19.408Z,101116.69
2022-11-02T22:00:21.647Z,101113.50
2022-11-02T22:03:23.816Z,101114.66
2022-11-02T22:06:30.959Z,101109.59
2022-11-02T22:09:33.774Z,101114.22
2022-11-02T22:12:54.665Z,101106.47
2022-11-02T22:15:56.812Z,101103.34
2022-11-02T22:19:04.369Z,101115.53
2022-11-02T22:22:06.610Z,101110.50
2022-11-02T22:25:08.988Z,101119.66
2022-11-02T22:28:11.177Z,101116.97
2022-11-02T22:31:17.644Z,101120.00
2022-11-02T22:34:19.825Z,101120.31
2022-11-02T22:37:40.747Z,101114.50
2022-11-02T22:40:43.026Z,101111.06
2022-11-02T22:43:45.805Z,101119.78
2022-11-02T22:46:50.160Z,101117.41
2022-11-02T22:49:52.301Z,101123.91
2022-11-02T22:52:55.044Z,101125.00
2022-11-02T22:56:01.184Z,101127.25
2022-11-02T22:59:04.386Z,101131.38
2022-11-02T23:02:06.633Z,101129.03
2022-11-02T23:05:09.319Z,101130.91
2022-11-02T23:08:11.973Z,101142.31
2022-11-02T23:11:22.354Z,101143.44
2022-11-02T23:14:24.603Z,101145.63
2022-11-02T23:17:26.744Z,101151.78
2022-11-02T23:20:28.918Z,101147.09
2022-11-02T23:23:49.846Z,101137.81
2022-11-02T23:26:52.171Z,101140.16
2022-11-02T23:30:13.114Z,101139.72
2022-11-02T23:33:15.817Z,101136.59
2022-11-02T23:36:17.962Z,101151.09
2022-11-02T23:39:38.939Z,101153.34
2022-11-02T23:42:41.348Z,101154.44
2022-11-02T23:45:43.492Z,101153.66
2022-11-02T23:48:48.326Z,101164.72
2022-11-02T23:52:11.759Z,101162.38
2022-11-02T23:55:35.307Z,101175.78
2022-11-02T23:58:37.874Z,101173.41
